sensor_id;sensor_type;location;lat;lon;timestamp;temperature;humidity
516;DHT22;244;48.508;9.052;2023-05-07T00:00:02;15.50;14.20
516;DHT22;244;48.508;9.052;2023-05-07T00:02:33;15.50;14.30
516;DHT22;244;48.508;9.052;2023-05-07T00:05:00;15.40;14.30
516;DHT22;244;48.508;9.052;2023-05-07T00:07:29;15.40;15.00
516;DHT22;244;48.508;9.052;2023-05-07T00:09:56;15.40;14.40
516;DHT22;244;48.508;9.052;2023-05-07T00:12:23;15.40;14.50
516;DHT22;244;48.508;9.052;2023-05-07T00:14:49;15.40;14.60
516;DHT22;244;48.508;9.052;2023-05-07T00:17:16;15.40;14.60
516;DHT22;244;48.508;9.052;2023-05-07T00:19:43;15.30;14.60
516;DHT22;244;48.508;9.052;2023-05-07T00:22:10;15.30;14.70
516;DHT22;244;48.508;9.052;2023-05-07T00:24:38;15.30;14.80
516;DHT22;244;48.508;9.052;2023-05-07T00:27:05;15.30;14.90
516;DHT22;244;48.508;9.052;2023-05-07T00:29:32;15.30;14.90
516;DHT22;244;48.508;9.052;2023-05-07T00:31:59;15.20;14.90
516;DHT22;244;48.508;9.052;2023-05-07T00:34:26;15.20;14.90
516;DHT22;244;48.508;9.052;2023-05-07T00:36:52;15.20;15.00
516;DHT22;244;48.508;9.052;2023-05-07T00:39:19;15.10;15.00
516;DHT22;244;48.508;9.052;2023-05-07T00:41:48;15.10;15.00
516;DHT22;244;48.508;9.052;2023-05-07T00:44:14;15.10;15.70
516;DHT22;244;48.508;9.052;2023-05-07T00:46:41;15.10;15.20
516;DHT22;244;48.508;9.052;2023-05-07T00:49:08;15.10;15.20
516;DHT22;244;48.508;9.052;2023-05-07T00:51:35;15.00;15.20
516;DHT22;244;48.508;9.052;2023-05-07T00:54:02;15.00;15.30
516;DHT22;244;48.508;9.052;2023-05-07T00:56:30;15.00;15.40
516;DHT22;244;48.508;9.052;2023-05-07T00:59:01;15.00;15.50
516;DHT22;244;48.508;9.052;2023-05-07T01:01:28;15.00;15.60
516;DHT22;244;48.508;9.052;2023-05-07T01:03:55;14.90;15.70
516;DHT22;244;48.508;9.052;2023-05-07T01:06:23;14.90;15.80
516;DHT22;244;48.508;9.052;2023-05-07T01:08:53;14.90;15.80
516;DHT22;244;48.508;9.052;2023-05-07T01:11:22;14.90;15.90
516;DHT22;244;48.508;9.052;2023-05-07T01:13:50;14.80;15.90
516;DHT22;244;48.508;9.052;2023-05-07T01:16:18;14.80;15.90
516;DHT22;244;48.508;9.052;2023-05-07T01:18:45;14.70;15.90
516;DHT22;244;48.508;9.052;2023-05-07T01:21:15;14.70;16.00
516;DHT22;244;48.508;9.052;2023-05-07T01:23:44;14.70;16.00
516;DHT22;244;48.508;9.052;2023-05-07T01:26:11;14.70;16.10
516;DHT22;244;48.508;9.052;2023-05-07T01:28:38;14.60;16.10
516;DHT22;244;48.508;9.052;2023-05-07T01:31:05;14.60;16.20
516;DHT22;244;48.508;9.052;2023-05-07T01:33:35;14.60;16.30
516;DHT22;244;48.508;9.052;2023-05-07T01:36:03;14.60;16.30
516;DHT22;244;48.508;9.052;2023-05-07T01:38:32;14.50;16.50
516;DHT22;244;48.508;9.052;2023-05-07T01:41:01;14.50;16.50
516;DHT22;244;48.508;9.052;2023-05-07T01:43:28;14.50;16.50
516;DHT22;244;48.508;9.052;2023-05-07T01:45:57;14.50;16.60
516;DHT22;244;48.508;9.052;2023-05-07T01:48:24;14.50;16.60
516;DHT22;244;48.508;9.052;2023-05-07T01:50:52;14.50;16.60
516;DHT22;244;48.508;9.052;2023-05-07T01:53:19;14.40;16.60
516;DHT22;244;48.508;9.052;2023-05-07T01:55:46;14.40;16.70
516;DHT22;244;48.508;9.052;2023-05-07T01:58:14;14.40;16.80
516;DHT22;244;48.508;9.052;2023-05-07T02:00:41;14.40;17.00
516;DHT22;244;48.508;9.052;2023-05-07T02:03:08;14.40;17.00
516;DHT22;244;48.508;9.052;2023-05-07T02:05:35;14.40;17.00
516;DHT22;244;48.508;9.052;2023-05-07T02:08:02;14.30;17.00
516;DHT22;244;48.508;9.052;2023-05-07T02:10:29;14.30;17.10
516;DHT22;244;48.508;9.052;2023-05-07T02:12:56;14.30;17.20
516;DHT22;244;48.508;9.052;2023-05-07T02:15:24;14.30;17.30
516;DHT22;244;48.508;9.052;2023-05-07T02:18:02;14.30;17.30
516;DHT22;244;48.508;9.052;2023-05-07T02:20:29;14.30;17.20
516;DHT22;244;48.508;9.052;2023-05-07T02:22:56;14.20;17.20
516;DHT22;244;48.508;9.052;2023-05-07T02:25:23;14.20;17.30
516;DHT22;244;48.508;9.052;2023-05-07T02:27:50;14.20;17.50
516;DHT22;244;48.508;9.052;2023-05-07T02:30:17;14.10;17.60
516;DHT22;244;48.508;9.052;2023-05-07T02:32:45;14.10;17.60
516;DHT22;244;48.508;9.052;2023-05-07T02:35:12;14.10;17.60
516;DHT22;244;48.508;9.052;2023-05-07T02:37:39;14.00;17.60
516;DHT22;244;48.508;9.052;2023-05-07T02:40:06;14.00;17.60
516;DHT22;244;48.508;9.052;2023-05-07T02:42:34;14.00;17.60
516;DHT22;244;48.508;9.052;2023-05-07T02:45:01;13.90;17.50
516;DHT22;244;48.508;9.052;2023-05-07T02:47:27;13.90;17.50
516;DHT22;244;48.508;9.052;2023-05-07T02:49:56;13.80;17.40
516;DHT22;244;48.508;9.052;2023-05-07T02:52:23;13.80;17.50
516;DHT22;244;48.508;9.052;2023-05-07T02:54:49;13.70;18.30
516;DHT22;244;48.508;9.052;2023-05-07T02:57:16;13.70;18.30
516;DHT22;244;48.508;9.052;2023-05-07T02:59:43;13.60;17.70
516;DHT22;244;48.508;9.052;2023-05-07T03:02:10;13.60;17.70
516;DHT22;244;48.508;9.052;2023-05-07T03:04:37;13.60;17.80
516;DHT22;244;48.508;9.052;2023-05-07T03:07:05;13.50;17.90
516;DHT22;244;48.508;9.052;2023-05-07T03:09:32;13.50;18.00
516;DHT22;244;48.508;9.052;2023-05-07T03:11:59;13.50;18.10
516;DHT22;244;48.508;9.052;2023-05-07T03:14:27;13.50;18.20
516;DHT22;244;48.508;9.052;2023-05-07T03:16:54;13.40;18.10
516;DHT22;244;48.508;9.052;2023-05-07T03:19:20;13.40;18.10
516;DHT22;244;48.508;9.052;2023-05-07T03:21:47;13.30;18.10
516;DHT22;244;48.508;9.052;2023-05-07T03:24:16;13.30;18.10
516;DHT22;244;48.508;9.052;2023-05-07T03:26:42;13.30;18.20
516;DHT22;244;48.508;9.052;2023-05-07T03:29:09;13.30;18.20
516;DHT22;244;48.508;9.052;2023-05-07T03:31:36;13.20;18.30
516;DHT22;244;48.508;9.052;2023-05-07T03:34:03;13.20;18.40
516;DHT22;244;48.508;9.052;2023-05-07T03:36:30;13.20;18.40
516;DHT22;244;48.508;9.052;2023-05-07T03:38:57;13.20;18.40
516;DHT22;244;48.508;9.052;2023-05-07T03:41:26;13.20;18.40
516;DHT22;244;48.508;9.052;2023-05-07T03:43:52;13.10;18.30
516;DHT22;244;48.508;9.052;2023-05-07T03:46:19;13.10;18.30
516;DHT22;244;48.508;9.052;2023-05-07T03:48:46;13.10;19.00
516;DHT22;244;48.508;9.052;2023-05-07T03:51:13;13.10;18.50
516;DHT22;244;48.508;9.052;2023-05-07T03:53:40;13.10;18.50
516;DHT22;244;48.508;9.052;2023-05-07T03:56:07;13.10;18.80
516;DHT22;244;48.508;9.052;2023-05-07T03:58:35;13.10;18.70
516;DHT22;244;48.508;9.052;2023-05-07T04:01:02;13.10;18.80
516;DHT22;244;48.508;9.052;2023-05-07T04:03:29;13.10;18.90
516;DHT22;244;48.508;9.052;2023-05-07T04:05:56;13.10;19.00
516;DHT22;244;48.508;9.052;2023-05-07T04:08:23;13.00;19.60
516;DHT22;244;48.508;9.052;2023-05-07T04:10:54;13.00;18.90
516;DHT22;244;48.508;9.052;2023-05-07T04:13:21;13.00;18.90
516;DHT22;244;48.508;9.052;2023-05-07T04:15:50;13.00;19.00
516;DHT22;244;48.508;9.052;2023-05-07T04:18:17;13.00;19.00
516;DHT22;244;48.508;9.052;2023-05-07T04:20:44;13.00;19.10
516;DHT22;244;48.508;9.052;2023-05-07T04:23:11;13.00;19.10
516;DHT22;244;48.508;9.052;2023-05-07T04:25:38;13.00;19.10
516;DHT22;244;48.508;9.052;2023-05-07T04:28:05;13.00;19.20
516;DHT22;244;48.508;9.052;2023-05-07T04:30:32;13.00;19.30
516;DHT22;244;48.508;9.052;2023-05-07T04:33:00;13.00;19.30
516;DHT22;244;48.508;9.052;2023-05-07T04:35:27;13.10;19.40
516;DHT22;244;48.508;9.052;2023-05-07T04:37:53;13.10;19.30
516;DHT22;244;48.508;9.052;2023-05-07T04:40:20;13.10;19.20
516;DHT22;244;48.508;9.052;2023-05-07T04:42:47;13.20;19.20
516;DHT22;244;48.508;9.052;2023-05-07T04:45:14;13.20;19.10
516;DHT22;244;48.508;9.052;2023-05-07T04:47:41;13.30;19.20
516;DHT22;244;48.508;9.052;2023-05-07T04:50:10;13.30;19.20
516;DHT22;244;48.508;9.052;2023-05-07T04:52:37;13.40;19.20
516;DHT22;244;48.508;9.052;2023-05-07T04:55:04;13.40;19.20
516;DHT22;244;48.508;9.052;2023-05-07T04:57:31;13.50;19.10
516;DHT22;244;48.508;9.052;2023-05-07T04:59:58;13.50;19.10
516;DHT22;244;48.508;9.052;2023-05-07T05:02:25;13.60;19.60
516;DHT22;244;48.508;9.052;2023-05-07T05:04:52;13.70;19.00
516;DHT22;244;48.508;9.052;2023-05-07T05:07:20;13.70;18.90
516;DHT22;244;48.508;9.052;2023-05-07T05:09:47;13.80;18.90
516;DHT22;244;48.508;9.052;2023-05-07T05:12:14;13.90;18.90
516;DHT22;244;48.508;9.052;2023-05-07T05:14:41;13.90;18.90
516;DHT22;244;48.508;9.052;2023-05-07T05:17:08;14.00;18.70
516;DHT22;244;48.508;9.052;2023-05-07T05:19:35;14.10;18.70
516;DHT22;244;48.508;9.052;2023-05-07T05:22:02;14.20;18.60
516;DHT22;244;48.508;9.052;2023-05-07T05:24:30;14.30;18.60
516;DHT22;244;48.508;9.052;2023-05-07T05:26:57;14.40;18.50
516;DHT22;244;48.508;9.052;2023-05-07T05:29:25;14.50;18.30
516;DHT22;244;48.508;9.052;2023-05-07T05:31:52;14.50;18.30
516;DHT22;244;48.508;9.052;2023-05-07T05:34:19;14.60;18.20
516;DHT22;244;48.508;9.052;2023-05-07T05:36:47;14.70;18.00
516;DHT22;244;48.508;9.052;2023-05-07T05:39:14;14.80;18.10
516;DHT22;244;48.508;9.052;2023-05-07T05:41:42;14.90;18.20
516;DHT22;244;48.508;9.052;2023-05-07T05:44:09;14.90;18.20
516;DHT22;244;48.508;9.052;2023-05-07T05:46:36;15.00;18.20
516;DHT22;244;48.508;9.052;2023-05-07T05:49:03;15.00;18.00
516;DHT22;244;48.508;9.052;2023-05-07T05:51:30;15.10;18.00
516;DHT22;244;48.508;9.052;2023-05-07T05:53:57;15.10;17.90
516;DHT22;244;48.508;9.052;2023-05-07T05:56:24;15.20;17.90
516;DHT22;244;48.508;9.052;2023-05-07T05:58:52;15.30;17.90
516;DHT22;244;48.508;9.052;2023-05-07T06:01:19;15.40;17.80
516;DHT22;244;48.508;9.052;2023-05-07T06:03:46;15.40;17.70
516;DHT22;244;48.508;9.052;2023-05-07T06:06:13;15.50;17.60
516;DHT22;244;48.508;9.052;2023-05-07T06:08:41;15.60;17.50
516;DHT22;244;48.508;9.052;2023-05-07T06:11:08;15.70;17.50
516;DHT22;244;48.508;9.052;2023-05-07T06:13:35;15.80;17.50
516;DHT22;244;48.508;9.052;2023-05-07T06:16:04;15.80;17.30
516;DHT22;244;48.508;9.052;2023-05-07T06:18:31;15.80;17.30
516;DHT22;244;48.508;9.052;2023-05-07T06:20:58;15.90;17.30
516;DHT22;244;48.508;9.052;2023-05-07T06:23:25;16.00;17.20
516;DHT22;244;48.508;9.052;2023-05-07T06:25:52;16.10;17.10
516;DHT22;244;48.508;9.052;2023-05-07T06:28:18;16.20;17.00
516;DHT22;244;48.508;9.052;2023-05-07T06:30:45;16.40;17.00
516;DHT22;244;48.508;9.052;2023-05-07T06:33:14;16.50;16.90
516;DHT22;244;48.508;9.052;2023-05-07T06:35:41;16.60;16.80
516;DHT22;244;48.508;9.052;2023-05-07T06:38:08;16.70;16.80
516;DHT22;244;48.508;9.052;2023-05-07T06:40:34;16.80;16.70
516;DHT22;244;48.508;9.052;2023-05-07T06:43:01;16.80;16.50
516;DHT22;244;48.508;9.052;2023-05-07T06:45:28;16.90;16.50
516;DHT22;244;48.508;9.052;2023-05-07T06:47:55;16.90;16.40
516;DHT22;244;48.508;9.052;2023-05-07T06:50:23;17.00;16.40
516;DHT22;244;48.508;9.052;2023-05-07T06:52:50;17.10;16.30
516;DHT22;244;48.508;9.052;2023-05-07T06:55:17;17.20;16.20
516;DHT22;244;48.508;9.052;2023-05-07T06:57:44;17.20;16.10
516;DHT22;244;48.508;9.052;2023-05-07T07:00:12;17.30;16.00
516;DHT22;244;48.508;9.052;2023-05-07T07:02:39;17.30;15.90
516;DHT22;244;48.508;9.052;2023-05-07T07:05:07;17.40;15.80
516;DHT22;244;48.508;9.052;2023-05-07T07:07:35;17.40;15.60
516;DHT22;244;48.508;9.052;2023-05-07T07:10:02;17.50;15.50
516;DHT22;244;48.508;9.052;2023-05-07T07:12:30;17.60;15.50
516;DHT22;244;48.508;9.052;2023-05-07T07:14:57;17.70;15.40
516;DHT22;244;48.508;9.052;2023-05-07T07:17:24;17.90;15.30
516;DHT22;244;48.508;9.052;2023-05-07T07:19:50;18.10;15.20
516;DHT22;244;48.508;9.052;2023-05-07T07:22:17;18.30;15.00
516;DHT22;244;48.508;9.052;2023-05-07T07:24:46;18.50;14.80
516;DHT22;244;48.508;9.052;2023-05-07T07:27:12;18.80;14.60
516;DHT22;244;48.508;9.052;2023-05-07T07:29:39;19.00;14.40
516;DHT22;244;48.508;9.052;2023-05-07T07:32:06;19.20;14.10
516;DHT22;244;48.508;9.052;2023-05-07T07:34:33;19.40;13.90
516;DHT22;244;48.508;9.052;2023-05-07T07:37:00;19.60;14.30
516;DHT22;244;48.508;9.052;2023-05-07T07:39:30;19.80;13.30
516;DHT22;244;48.508;9.052;2023-05-07T07:41:59;20.00;12.90
516;DHT22;244;48.508;9.052;2023-05-07T07:44:27;20.00;12.70
516;DHT22;244;48.508;9.052;2023-05-07T07:46:54;20.10;12.80
516;DHT22;244;48.508;9.052;2023-05-07T07:49:21;20.10;12.80
516;DHT22;244;48.508;9.052;2023-05-07T07:51:48;20.10;12.80
516;DHT22;244;48.508;9.052;2023-05-07T07:54:16;20.10;12.80
516;DHT22;244;48.508;9.052;2023-05-07T07:56:43;20.00;12.70
516;DHT22;244;48.508;9.052;2023-05-07T07:59:11;19.90;12.70
516;DHT22;244;48.508;9.052;2023-05-07T08:01:39;19.80;12.60
516;DHT22;244;48.508;9.052;2023-05-07T08:04:06;19.80;12.60
516;DHT22;244;48.508;9.052;2023-05-07T08:06:33;19.70;13.20
516;DHT22;244;48.508;9.052;2023-05-07T08:09:00;19.60;12.70
516;DHT22;244;48.508;9.052;2023-05-07T08:11:27;19.60;12.80
516;DHT22;244;48.508;9.052;2023-05-07T08:13:54;19.60;12.90
516;DHT22;244;48.508;9.052;2023-05-07T08:16:23;19.50;12.80
516;DHT22;244;48.508;9.052;2023-05-07T08:18:49;19.50;12.90
516;DHT22;244;48.508;9.052;2023-05-07T08:21:19;19.50;13.00
516;DHT22;244;48.508;9.052;2023-05-07T08:23:46;19.50;13.00
516;DHT22;244;48.508;9.052;2023-05-07T08:26:16;19.50;13.10
516;DHT22;244;48.508;9.052;2023-05-07T08:28:43;19.50;13.20
516;DHT22;244;48.508;9.052;2023-05-07T08:31:10;19.50;13.20
516;DHT22;244;48.508;9.052;2023-05-07T08:33:38;19.50;13.20
516;DHT22;244;48.508;9.052;2023-05-07T08:36:05;19.50;13.20
516;DHT22;244;48.508;9.052;2023-05-07T08:38:32;19.50;13.20
516;DHT22;244;48.508;9.052;2023-05-07T08:40:59;19.60;13.20
516;DHT22;244;48.508;9.052;2023-05-07T08:43:27;19.60;13.10
516;DHT22;244;48.508;9.052;2023-05-07T08:45:54;19.70;13.10
516;DHT22;244;48.508;9.052;2023-05-07T08:48:23;19.80;13.00
516;DHT22;244;48.508;9.052;2023-05-07T08:50:53;19.90;12.90
516;DHT22;244;48.508;9.052;2023-05-07T08:53:20;20.00;12.70
516;DHT22;244;48.508;9.052;2023-05-07T08:55:47;20.10;13.40
516;DHT22;244;48.508;9.052;2023-05-07T08:58:15;20.20;12.80
516;DHT22;244;48.508;9.052;2023-05-07T09:00:42;20.30;12.90
516;DHT22;244;48.508;9.052;2023-05-07T09:03:09;20.50;13.00
516;DHT22;244;48.508;9.052;2023-05-07T09:05:37;20.60;12.60
516;DHT22;244;48.508;9.052;2023-05-07T09:08:07;20.70;12.40
516;DHT22;244;48.508;9.052;2023-05-07T09:10:34;20.80;12.30
516;DHT22;244;48.508;9.052;2023-05-07T09:13:01;20.90;12.10
516;DHT22;244;48.508;9.052;2023-05-07T09:15:29;21.00;11.90
516;DHT22;244;48.508;9.052;2023-05-07T09:17:59;21.10;12.30
516;DHT22;244;48.508;9.052;2023-05-07T09:20:30;21.10;11.50
516;DHT22;244;48.508;9.052;2023-05-07T09:22:57;21.20;11.50
516;DHT22;244;48.508;9.052;2023-05-07T09:25:29;21.20;11.40
516;DHT22;244;48.508;9.052;2023-05-07T09:27:57;21.40;11.50
516;DHT22;244;48.508;9.052;2023-05-07T09:30:31;21.50;11.40
516;DHT22;244;48.508;9.052;2023-05-07T09:33:01;21.60;11.30
516;DHT22;244;48.508;9.052;2023-05-07T09:35:29;21.60;11.20
516;DHT22;244;48.508;9.052;2023-05-07T10:09:03;23.20;9.50
516;DHT22;244;48.508;9.052;2023-05-07T10:11:32;23.30;9.20
516;DHT22;244;48.508;9.052;2023-05-07T10:13:59;23.40;9.00
516;DHT22;244;48.508;9.052;2023-05-07T10:16:28;23.50;8.80
516;DHT22;244;48.508;9.052;2023-05-07T10:18:58;23.60;8.40
516;DHT22;244;48.508;9.052;2023-05-07T10:21:27;23.70;8.30
516;DHT22;244;48.508;9.052;2023-05-07T10:23:59;23.80;8.10
516;DHT22;244;48.508;9.052;2023-05-07T10:26:29;24.00;7.90
516;DHT22;244;48.508;9.052;2023-05-07T10:29:02;24.10;8.40
516;DHT22;244;48.508;9.052;2023-05-07T10:31:44;24.30;7.50
516;DHT22;244;48.508;9.052;2023-05-07T10:34:19;24.40;6.90
516;DHT22;244;48.508;9.052;2023-05-07T10:36:48;24.50;6.60
516;DHT22;244;48.508;9.052;2023-05-07T10:39:17;24.60;6.60
516;DHT22;244;48.508;9.052;2023-05-07T10:41:45;24.70;6.60
516;DHT22;244;48.508;9.052;2023-05-07T10:44:25;24.90;6.80
516;DHT22;244;48.508;9.052;2023-05-07T10:47:06;25.00;6.50
516;DHT22;244;48.508;9.052;2023-05-07T10:49:35;25.10;6.40
516;DHT22;244;48.508;9.052;2023-05-07T10:52:12;25.30;6.10
516;DHT22;244;48.508;9.052;2023-05-07T10:54:40;25.40;5.50
516;DHT22;244;48.508;9.052;2023-05-07T10:57:43;25.40;5.00
516;DHT22;244;48.508;9.052;2023-05-07T11:00:42;25.60;4.40
516;DHT22;244;48.508;9.052;2023-05-07T11:03:21;25.70;4.10
516;DHT22;244;48.508;9.052;2023-05-07T11:06:11;25.90;3.30
516;DHT22;244;48.508;9.052;2023-05-07T11:08:53;26.10;3.10
516;DHT22;244;48.508;9.052;2023-05-07T11:11:44;26.30;2.60
516;DHT22;244;48.508;9.052;2023-05-07T11:14:13;26.50;2.10
516;DHT22;244;48.508;9.052;2023-05-07T11:16:41;26.60;1.90
516;DHT22;244;48.508;9.052;2023-05-07T11:19:09;26.90;1.80
516;DHT22;244;48.508;9.052;2023-05-07T11:21:47;27.20;1.70
516;DHT22;244;48.508;9.052;2023-05-07T11:24:15;27.50;1.50
516;DHT22;244;48.508;9.052;2023-05-07T11:26:47;27.60;1.10
516;DHT22;244;48.508;9.052;2023-05-07T11:29:18;27.70;1.00
516;DHT22;244;48.508;9.052;2023-05-07T11:31:49;27.70;1.00
516;DHT22;244;48.508;9.052;2023-05-07T11:34:21;27.70;1.00
516;DHT22;244;48.508;9.052;2023-05-07T11:36:49;27.80;1.00
516;DHT22;244;48.508;9.052;2023-05-07T11:39:27;27.70;1.00
516;DHT22;244;48.508;9.052;2023-05-07T11:41:58;27.50;1.00
516;DHT22;244;48.508;9.052;2023-05-07T11:44:40;27.40;1.00
516;DHT22;244;48.508;9.052;2023-05-07T11:47:07;27.20;1.00
516;DHT22;244;48.508;9.052;2023-05-07T11:49:34;26.90;1.00
516;DHT22;244;48.508;9.052;2023-05-07T11:52:01;26.70;1.10
516;DHT22;244;48.508;9.052;2023-05-07T11:54:35;26.50;1.30
516;DHT22;244;48.508;9.052;2023-05-07T11:57:02;26.30;1.50
516;DHT22;244;48.508;9.052;2023-05-07T11:59:38;26.10;1.70
516;DHT22;244;48.508;9.052;2023-05-07T12:02:06;25.90;2.00
516;DHT22;244;48.508;9.052;2023-05-07T12:04:33;25.70;2.10
516;DHT22;244;48.508;9.052;2023-05-07T12:07:00;25.60;2.30
516;DHT22;244;48.508;9.052;2023-05-07T12:09:27;25.50;2.40
516;DHT22;244;48.508;9.052;2023-05-07T12:11:54;25.30;2.60
516;DHT22;244;48.508;9.052;2023-05-07T12:14:21;25.20;2.80
516;DHT22;244;48.508;9.052;2023-05-07T12:16:50;25.10;3.50
516;DHT22;244;48.508;9.052;2023-05-07T12:19:17;24.70;3.30
516;DHT22;244;48.508;9.052;2023-05-07T12:21:44;24.40;3.70
516;DHT22;244;48.508;9.052;2023-05-07T12:24:11;23.90;4.20
516;DHT22;244;48.508;9.052;2023-05-07T12:26:38;23.40;4.90
516;DHT22;244;48.508;9.052;2023-05-07T12:29:06;22.90;5.40
516;DHT22;244;48.508;9.052;2023-05-07T12:31:33;22.40;6.40
516;DHT22;244;48.508;9.052;2023-05-07T12:34:02;22.00;7.10
516;DHT22;244;48.508;9.052;2023-05-07T12:36:36;21.70;7.50
516;DHT22;244;48.508;9.052;2023-05-07T12:39:04;21.50;7.80
516;DHT22;244;48.508;9.052;2023-05-07T12:41:36;21.40;8.00
516;DHT22;244;48.508;9.052;2023-05-07T12:44:12;21.40;8.20
516;DHT22;244;48.508;9.052;2023-05-07T12:46:43;21.30;8.40
516;DHT22;244;48.508;9.052;2023-05-07T12:49:24;21.30;9.00
516;DHT22;244;48.508;9.052;2023-05-07T12:51:51;21.20;8.90
516;DHT22;244;48.508;9.052;2023-05-07T12:54:28;21.20;8.90
516;DHT22;244;48.508;9.052;2023-05-07T12:57:01;21.10;8.90
516;DHT22;244;48.508;9.052;2023-05-07T12:59:32;21.00;9.20
516;DHT22;244;48.508;9.052;2023-05-07T13:01:59;20.90;9.60
516;DHT22;244;48.508;9.052;2023-05-07T13:04:28;20.40;10.30
516;DHT22;244;48.508;9.052;2023-05-07T13:06:55;19.90;11.30
516;DHT22;244;48.508;9.052;2023-05-07T13:09:22;19.50;12.40
516;DHT22;244;48.508;9.052;2023-05-07T13:11:49;19.10;13.00
516;DHT22;244;48.508;9.052;2023-05-07T13:14:16;18.80;14.30
516;DHT22;244;48.508;9.052;2023-05-07T13:16:43;18.50;15.90
516;DHT22;244;48.508;9.052;2023-05-07T13:19:10;18.20;18.50
516;DHT22;244;48.508;9.052;2023-05-07T13:21:38;17.90;19.60
516;DHT22;244;48.508;9.052;2023-05-07T13:24:06;17.60;20.50
516;DHT22;244;48.508;9.052;2023-05-07T13:26:33;17.40;21.40
516;DHT22;244;48.508;9.052;2023-05-07T13:29:03;17.20;22.10
516;DHT22;244;48.508;9.052;2023-05-07T13:31:30;17.10;22.90
516;DHT22;244;48.508;9.052;2023-05-07T13:33:57;17.10;23.60
516;DHT22;244;48.508;9.052;2023-05-07T13:36:24;17.00;24.10
516;DHT22;244;48.508;9.052;2023-05-07T13:38:53;17.00;24.60
516;DHT22;244;48.508;9.052;2023-05-07T13:41:24;17.00;24.90
516;DHT22;244;48.508;9.052;2023-05-07T13:43:51;16.90;25.20
516;DHT22;244;48.508;9.052;2023-05-07T13:46:18;16.80;25.40
516;DHT22;244;48.508;9.052;2023-05-07T13:48:45;16.80;25.70
516;DHT22;244;48.508;9.052;2023-05-07T13:51:12;16.70;25.90
516;DHT22;244;48.508;9.052;2023-05-07T13:53:39;16.80;26.20
516;DHT22;244;48.508;9.052;2023-05-07T13:56:08;16.70;26.30
516;DHT22;244;48.508;9.052;2023-05-07T13:58:34;16.70;26.50
516;DHT22;244;48.508;9.052;2023-05-07T14:01:01;16.70;26.70
516;DHT22;244;48.508;9.052;2023-05-07T14:03:28;16.70;26.80
516;DHT22;244;48.508;9.052;2023-05-07T14:05:57;16.70;26.90
516;DHT22;244;48.508;9.052;2023-05-07T14:08:25;16.70;26.90
516;DHT22;244;48.508;9.052;2023-05-07T14:10:52;16.70;26.90
516;DHT22;244;48.508;9.052;2023-05-07T14:13:20;16.60;26.90
516;DHT22;244;48.508;9.052;2023-05-07T14:15:47;16.60;27.30
516;DHT22;244;48.508;9.052;2023-05-07T14:18:15;16.60;27.50
516;DHT22;244;48.508;9.052;2023-05-07T14:20:42;16.70;27.70
516;DHT22;244;48.508;9.052;2023-05-07T14:23:11;16.80;27.80
516;DHT22;244;48.508;9.052;2023-05-07T14:25:38;16.80;27.80
516;DHT22;244;48.508;9.052;2023-05-07T14:28:06;16.90;27.90
516;DHT22;244;48.508;9.052;2023-05-07T14:30:34;17.00;28.20
516;DHT22;244;48.508;9.052;2023-05-07T14:33:01;17.10;28.10
516;DHT22;244;48.508;9.052;2023-05-07T14:35:28;17.20;28.20
516;DHT22;244;48.508;9.052;2023-05-07T14:37:55;17.30;28.00
516;DHT22;244;48.508;9.052;2023-05-07T14:40:22;17.40;27.90
516;DHT22;244;48.508;9.052;2023-05-07T14:42:49;17.40;28.00
516;DHT22;244;48.508;9.052;2023-05-07T14:45:16;17.50;28.00
516;DHT22;244;48.508;9.052;2023-05-07T14:47:44;17.70;28.10
516;DHT22;244;48.508;9.052;2023-05-07T14:50:13;17.80;28.10
516;DHT22;244;48.508;9.052;2023-05-07T14:52:40;17.90;28.00
516;DHT22;244;48.508;9.052;2023-05-07T14:55:08;17.90;28.00
516;DHT22;244;48.508;9.052;2023-05-07T14:57:35;18.00;28.10
516;DHT22;244;48.508;9.052;2023-05-07T15:00:09;18.10;28.10
516;DHT22;244;48.508;9.052;2023-05-07T15:02:37;18.20;28.20
516;DHT22;244;48.508;9.052;2023-05-07T15:05:06;18.20;28.10
516;DHT22;244;48.508;9.052;2023-05-07T15:07:33;18.30;28.10
516;DHT22;244;48.508;9.052;2023-05-07T15:10:11;18.40;28.20
516;DHT22;244;48.508;9.052;2023-05-07T15:12:38;18.40;28.30
516;DHT22;244;48.508;9.052;2023-05-07T15:15:06;18.40;28.30
516;DHT22;244;48.508;9.052;2023-05-07T15:17:34;18.50;28.40
516;DHT22;244;48.508;9.052;2023-05-07T15:20:02;18.60;28.40
516;DHT22;244;48.508;9.052;2023-05-07T15:22:34;18.80;28.40
516;DHT22;244;48.508;9.052;2023-05-07T15:25:07;18.90;28.20
516;DHT22;244;48.508;9.052;2023-05-07T15:27:34;18.90;28.30
516;DHT22;244;48.508;9.052;2023-05-07T15:30:02;18.90;28.30
516;DHT22;244;48.508;9.052;2023-05-07T15:32:29;18.90;28.20
516;DHT22;244;48.508;9.052;2023-05-07T15:34:55;19.00;28.10
516;DHT22;244;48.508;9.052;2023-05-07T15:37:22;19.10;27.90
516;DHT22;244;48.508;9.052;2023-05-07T15:39:51;19.20;27.70
516;DHT22;244;48.508;9.052;2023-05-07T15:42:18;19.20;27.70
516;DHT22;244;48.508;9.052;2023-05-07T15:44:51;19.30;27.60
516;DHT22;244;48.508;9.052;2023-05-07T15:47:18;19.30;27.90
516;DHT22;244;48.508;9.052;2023-05-07T15:49:45;19.40;28.10
516;DHT22;244;48.508;9.052;2023-05-07T15:52:14;19.40;28.10
516;DHT22;244;48.508;9.052;2023-05-07T15:54:42;19.40;28.20
516;DHT22;244;48.508;9.052;2023-05-07T15:57:10;19.40;28.00
516;DHT22;244;48.508;9.052;2023-05-07T15:59:37;19.40;27.90
516;DHT22;244;48.508;9.052;2023-05-07T16:02:04;19.40;27.70
516;DHT22;244;48.508;9.052;2023-05-07T16:04:33;19.40;27.70
516;DHT22;244;48.508;9.052;2023-05-07T16:07:01;19.40;27.70
516;DHT22;244;48.508;9.052;2023-05-07T16:09:28;19.40;27.70
516;DHT22;244;48.508;9.052;2023-05-07T16:11:55;19.40;27.70
516;DHT22;244;48.508;9.052;2023-05-07T16:14:24;19.40;27.60
516;DHT22;244;48.508;9.052;2023-05-07T16:16:51;19.40;28.30
516;DHT22;244;48.508;9.052;2023-05-07T16:19:18;19.30;27.80
516;DHT22;244;48.508;9.052;2023-05-07T16:21:45;19.20;27.70
516;DHT22;244;48.508;9.052;2023-05-07T16:24:12;19.20;27.60
516;DHT22;244;48.508;9.052;2023-05-07T16:26:39;19.10;27.80
516;DHT22;244;48.508;9.052;2023-05-07T16:29:06;19.00;27.90
516;DHT22;244;48.508;9.052;2023-05-07T16:31:34;18.90;28.20
516;DHT22;244;48.508;9.052;2023-05-07T16:34:01;18.90;28.40
516;DHT22;244;48.508;9.052;2023-05-07T16:36:28;18.80;28.50
516;DHT22;244;48.508;9.052;2023-05-07T16:38:55;18.80;28.60
516;DHT22;244;48.508;9.052;2023-05-07T16:41:22;18.70;28.70
516;DHT22;244;48.508;9.052;2023-05-07T16:43:49;18.70;28.90
516;DHT22;244;48.508;9.052;2023-05-07T16:46:16;18.70;29.10
516;DHT22;244;48.508;9.052;2023-05-07T16:48:45;18.70;29.10
516;DHT22;244;48.508;9.052;2023-05-07T16:51:12;18.70;29.20
516;DHT22;244;48.508;9.052;2023-05-07T16:53:39;18.70;29.20
516;DHT22;244;48.508;9.052;2023-05-07T16:56:06;18.70;29.10
516;DHT22;244;48.508;9.052;2023-05-07T16:58:33;18.70;29.30
516;DHT22;244;48.508;9.052;2023-05-07T17:01:00;18.70;29.40
516;DHT22;244;48.508;9.052;2023-05-07T17:03:28;18.70;29.40
516;DHT22;244;48.508;9.052;2023-05-07T17:05:57;18.60;29.30
516;DHT22;244;48.508;9.052;2023-05-07T17:08:24;18.60;29.30
516;DHT22;244;48.508;9.052;2023-05-07T17:10:51;18.50;29.30
516;DHT22;244;48.508;9.052;2023-05-07T17:13:18;18.50;29.20